This is the latest recevied weather packets stored in our database for station/object IW0HP-3. If no packets are shown the sender has not sent any weather packets the latest 1 day(s).
| Time | Temp. | Humidity | Pressure | Rain* | Wind** | Luminosity | Snow |
|---|---|---|---|---|---|---|---|
| 1778100235 | 17.78° C | 63% | 1014.3 hPa | - | - | - | - |
| 1778099029 | 18.33° C | 61% | 1014.4 hPa | - | - | - | - |
| 1778096619 | 18.33° C | 57% | 1014.3 hPa | - | - | - | - |
| 1778095414 | 18.33° C | 60% | 1014.1 hPa | - | - | - | - |
| 1778090593 | 18.89° C | 61% | 1013.6 hPa | - | - | - | - |
| 1778085771 | 19.44° C | 60% | 1013.3 hPa | - | - | - | - |
| 1778084566 | 19.44° C | 61% | 1013.4 hPa | - | - | - | - |
| 1778080951 | 20° C | 57% | 1013.4 hPa | - | - | - | - |
| 1778079746 | 20.56° C | 56% | 1013.3 hPa | - | - | - | - |
| 1778078540 | 20.56° C | 54% | 1013.5 hPa | - | - | - | - |
| 1778077335 | 20.56° C | 53% | 1013.5 hPa | - | - | - | - |
| 1778076129 | 21.11° C | 53% | 1013.3 hPa | - | - | - | - |
| 1778066487 | 22.22° C | 43% | 1013.9 hPa | - | - | - | - |
| 1778064076 | 21.11° C | 43% | 1014.3 hPa | - | - | - | - |
| 1778062870 | 21.11° C | 47% | 1014.2 hPa | - | - | - | - |
| 1778060460 | 20.56° C | 52% | 1014 hPa | - | - | - | - |
| 1778058050 | 19.44° C | 57% | 1013.9 hPa | - | - | - | - |
| 1778056844 | 18.89° C | 61% | 1013.7 hPa | - | - | - | - |
| 1778050818 | 18.33° C | 65% | 1014.1 hPa | - | - | - | - |
| 1778049612 | 17.22° C | 69% | 1014.2 hPa | - | - | - | - |
| 1778048407 | 16.67° C | 70% | 1014.2 hPa | - | - | - | - |
| 1778045997 | 16.67° C | 72% | 1014.4 hPa | - | - | - | - |
| 1778044791 | 16.67° C | 66% | 1014.1 hPa | - | - | - | - |
| 1778043586 | 16.67° C | 65% | 1014.1 hPa | - | - | - | - |
| 1778042380 | 16.67° C | 63% | 1014.1 hPa | - | - | - | - |
* Rain since midnight (hover to see other rain measurements)
** Current wind speed in m/s (hover to see current wind gust speed)